Time;durP1;ratioP1;P1;durP2;ratioP2;P2;SDS_P1;SDS_P2;PMS_P1;PMS_P2;Temp;Humidity;BMP_temperature;BMP_pressure;BME280_temperature;BME280_humidity;BME280_pressure;Samples;Min_cycle;Max_cycle;Signal;HPM_P1;HPM_P2
2023/03/12 00:01:50;;;;;;;26.90;15.40;;;;;;;;;;5051020;28;19962;-78
2023/03/12 00:04:16;;;;;;;33.13;17.63;;;;;;;;;;5033301;28;20025;-78
2023/03/12 00:06:41;;;;;;;32.20;18.02;;;;;;;;;;5051239;28;20452;-76
2023/03/12 00:09:08;;;;;;;35.83;17.48;;;;;;;;;;5051442;28;20127;-76
2023/03/12 00:11:33;;;;;;;29.55;16.50;;;;;;;;;;5049985;28;20035;-78
2023/03/12 00:13:59;;;;;;;39.47;18.83;;;;;;;;;;5014065;28;20111;-75
2023/03/12 00:16:24;;;;;;;36.47;18.63;;;;;;;;;;5011340;28;20025;-78
2023/03/12 00:18:50;;;;;;;33.15;17.95;;;;;;;;;;5016877;28;20129;-77
2023/03/12 00:21:16;;;;;;;42.13;20.70;;;;;;;;;;5016798;28;20033;-78
2023/03/12 00:23:42;;;;;;;41.17;20.65;;;;;;;;;;5033286;28;20087;-78
2023/03/12 00:26:08;;;;;;;49.75;21.33;;;;;;;;;;5016592;28;20119;-78
2023/03/12 00:28:34;;;;;;;47.97;20.90;;;;;;;;;;5051112;28;20048;-78
2023/03/12 00:30:59;;;;;;;52.45;21.55;;;;;;;;;;5033044;28;20033;-78
2023/03/12 00:33:25;;;;;;;50.42;21.60;;;;;;;;;;5051421;28;20151;-78
2023/03/12 00:35:50;;;;;;;44.53;21.42;;;;;;;;;;5050348;28;20115;-78
2023/03/12 00:38:16;;;;;;;49.40;21.95;;;;;;;;;;5033211;28;20037;-78
2023/03/12 00:40:41;;;;;;;55.08;22.67;;;;;;;;;;5037036;28;20059;-79
2023/03/12 00:43:07;;;;;;;49.25;22.80;;;;;;;;;;5016344;28;20029;-78
2023/03/12 00:45:32;;;;;;;56.92;22.13;;;;;;;;;;5050804;28;20495;-78
2023/03/12 00:48:24;;;;;;;55.50;22.83;;;;;;;;;;5051025;28;20044;-79
2023/03/12 00:50:49;;;;;;;50.70;21.95;;;;;;;;;;5050476;28;20029;-78
2023/03/12 00:53:15;;;;;;;49.25;23.55;;;;;;;;;;5050811;28;20025;-78
2023/03/12 00:55:40;;;;;;;55.60;23.63;;;;;;;;;;5046897;28;20053;-78
2023/03/12 00:58:05;;;;;;;59.92;24.80;;;;;;;;;;5048793;28;20033;-78
2023/03/12 01:00:31;;;;;;;64.30;24.23;;;;;;;;;;5050317;28;20033;-78
2023/03/12 01:02:56;;;;;;;60.08;24.67;;;;;;;;;;5048755;28;20033;-78
2023/03/12 01:05:22;;;;;;;51.95;23.90;;;;;;;;;;5031355;28;20029;-78
2023/03/12 01:07:47;;;;;;;55.70;25.60;;;;;;;;;;5050755;28;20032;-79
2023/03/12 01:10:14;;;;;;;63.33;26.95;;;;;;;;;;5031552;28;20037;-78
2023/03/12 01:12:40;;;;;;;54.78;24.90;;;;;;;;;;5048500;28;20048;-78
2023/03/12 01:15:06;;;;;;;52.95;22.58;;;;;;;;;;5047592;28;20125;-78
2023/03/12 01:17:32;;;;;;;60.20;26.83;;;;;;;;;;5039613;28;20116;-78
2023/03/12 01:19:57;;;;;;;67.35;28.17;;;;;;;;;;5032951;28;20045;-79
2023/03/12 01:22:23;;;;;;;71.03;27.00;;;;;;;;;;5034192;28;20028;-78
2023/03/12 01:24:48;;;;;;;73.10;29.73;;;;;;;;;;5039592;28;20032;-78
2023/03/12 01:27:14;;;;;;;77.65;29.88;;;;;;;;;;5053807;28;20096;-78
2023/03/12 01:29:39;;;;;;;73.32;29.20;;;;;;;;;;5020655;28;20040;-78
2023/03/12 01:32:05;;;;;;;71.15;29.38;;;;;;;;;;5036196;28;20024;-78
2023/03/12 01:34:32;;;;;;;77.28;29.05;;;;;;;;;;5054066;28;20047;-78
2023/03/12 01:36:57;;;;;;;77.75;30.10;;;;;;;;;;5053490;28;20423;-78
2023/03/12 01:39:24;;;;;;;92.05;33.65;;;;;;;;;;5053221;28;20068;-78
2023/03/12 01:41:50;;;;;;;85.90;31.90;;;;;;;;;;5052891;28;20538;-78
2023/03/12 01:44:15;;;;;;;85.10;31.88;;;;;;;;;;5036328;28;20028;-78
2023/03/12 01:46:47;;;;;;;74.80;30.08;;;;;;;;;;5036486;28;20044;-79
2023/03/12 01:49:22;;;;;;;82.32;29.55;;;;;;;;;;5021871;28;20510;-78
2023/03/12 01:51:55;;;;;;;82.70;33.20;;;;;;;;;;5036224;28;20047;-78
2023/03/12 01:54:23;;;;;;;69.35;30.08;;;;;;;;;;5036513;28;20045;-75
2023/03/12 01:56:48;;;;;;;75.90;30.23;;;;;;;;;;5035593;28;20043;-76
2023/03/12 01:59:20;;;;;;;99.80;33.20;;;;;;;;;;5018553;28;20074;-76
2023/03/12 02:01:47;;;;;;;92.70;33.38;;;;;;;;;;5016076;28;20041;-76
2023/03/12 02:04:13;;;;;;;;;;;;;;;;;;5017105;28;20039;-76
2023/03/12 02:06:43;;;;;;;80.25;31.33;;;;;;;;;;5053585;28;19912;-77
2023/03/12 02:09:08;;;;;;;82.72;32.40;;;;;;;;;;5035462;28;20067;-76
2023/03/12 02:11:34;;;;;;;90.22;33.30;;;;;;;;;;5019187;28;20598;-77
2023/03/12 02:14:00;;;;;;;81.70;32.22;;;;;;;;;;5034828;28;20033;-75
2023/03/12 02:16:25;;;;;;;80.40;32.10;;;;;;;;;;5015896;28;20496;-76
2023/03/12 02:18:51;;;;;;;88.72;34.05;;;;;;;;;;5033473;28;20028;-78
2023/03/12 02:21:26;;;;;;;92.80;33.65;;;;;;;;;;5035401;28;20123;-78
2023/03/12 02:24:11;;;;;;;89.20;34.20;;;;;;;;;;5034748;28;20071;-78
2023/03/12 02:26:37;;;;;;;79.00;31.33;;;;;;;;;;5035394;28;20143;-77
2023/03/12 02:29:02;;;;;;;91.25;32.97;;;;;;;;;;5035096;28;20112;-78
2023/03/12 02:31:30;;;;;;;70.10;28.77;;;;;;;;;;5052517;28;20071;-78
2023/03/12 02:33:57;;;;;;;80.88;31.75;;;;;;;;;;5014426;28;20033;-78
2023/03/12 02:36:22;;;;;;;83.60;31.98;;;;;;;;;;5012702;28;20049;-78
2023/03/12 02:38:49;;;;;;;82.65;31.52;;;;;;;;;;5035055;28;20083;-78
2023/03/12 02:41:16;;;;;;;76.43;30.55;;;;;;;;;;5017986;28;20040;-78
2023/03/12 02:43:46;;;;;;;65.07;29.15;;;;;;;;;;5035109;28;20214;-78
2023/03/12 02:46:12;;;;;;;67.85;29.48;;;;;;;;;;5034688;28;20041;-78
2023/03/12 02:48:37;;;;;;;59.30;28.38;;;;;;;;;;5052647;28;20399;-78
2023/03/12 02:51:03;;;;;;;74.32;28.77;;;;;;;;;;5052451;28;20041;-76
2023/03/12 02:53:28;;;;;;;61.17;28.27;;;;;;;;;;5052469;28;20125;-76
2023/03/12 02:55:54;;;;;;;53.92;26.80;;;;;;;;;;5040204;28;20048;-78
2023/03/12 02:58:20;;;;;;;58.08;27.63;;;;;;;;;;5071434;28;20540;-76
2023/03/12 03:00:45;;;;;;;49.67;25.02;;;;;;;;;;5071135;28;20040;-76
2023/03/12 03:03:11;;;;;;;51.67;24.60;;;;;;;;;;5037595;28;20119;-77
2023/03/12 03:05:36;;;;;;;45.97;24.40;;;;;;;;;;5053541;28;20115;-78
2023/03/12 03:08:02;;;;;;;49.03;25.02;;;;;;;;;;5053781;28;20032;-77
2023/03/12 03:10:28;;;;;;;;;;;;;;;;;;5036981;28;20040;-78
2023/03/12 03:12:53;;;;;;;47.00;24.10;;;;;;;;;;5071220;28;19908;-77
2023/03/12 03:15:19;;;;;;;46.05;23.73;;;;;;;;;;5052407;28;20039;-78
2023/03/12 03:17:45;;;;;;;47.67;23.30;;;;;;;;;;5037643;28;20136;-78
2023/03/12 03:20:10;;;;;;;51.58;25.33;;;;;;;;;;5070328;28;20043;-78
2023/03/12 03:22:36;;;;;;;41.28;22.17;;;;;;;;;;5071410;28;20051;-77
2023/03/12 03:25:02;;;;;;;41.17;22.55;;;;;;;;;;5051884;28;20176;-78
2023/03/12 03:27:27;;;;;;;44.22;22.90;;;;;;;;;;5046401;28;20031;-78
2023/03/12 03:29:53;;;;;;;42.50;23.00;;;;;;;;;;5047984;28;20135;-78
2023/03/12 03:32:18;;;;;;;51.63;25.42;;;;;;;;;;5053601;28;20399;-79
2023/03/12 03:34:44;;;;;;;49.53;24.52;;;;;;;;;;5039022;28;20041;-78
2023/03/12 03:37:10;;;;;;;48.50;24.27;;;;;;;;;;5033907;28;20052;-78
2023/03/12 03:39:35;;;;;;;51.00;23.73;;;;;;;;;;5017296;28;20048;-78
2023/03/12 03:42:01;;;;;;;53.25;24.80;;;;;;;;;;5034038;28;20025;-78
2023/03/12 03:44:30;;;;;;;47.03;24.77;;;;;;;;;;5033840;28;20427;-78
2023/03/12 03:46:55;;;;;;;46.08;23.27;;;;;;;;;;5052015;28;20040;-78
2023/03/12 03:49:21;;;;;;;43.75;22.23;;;;;;;;;;5047507;28;20143;-79
2023/03/12 03:51:46;;;;;;;41.65;22.92;;;;;;;;;;5026803;28;20033;-78
2023/03/12 03:54:15;;;;;;;45.40;23.98;;;;;;;;;;5028775;28;20077;-77
2023/03/12 03:56:42;;;;;;;41.08;21.65;;;;;;;;;;5040700;28;20053;-80
2023/03/12 03:59:09;;;;;;;38.25;20.27;;;;;;;;;;5017198;28;20082;-76
2023/03/12 04:01:37;;;;;;;34.05;20.05;;;;;;;;;;5033416;28;20522;-77
2023/03/12 04:04:03;;;;;;;33.13;19.70;;;;;;;;;;5051005;28;20033;-79
2023/03/12 04:06:30;;;;;;;32.95;19.67;;;;;;;;;;5033530;28;20103;-76
2023/03/12 04:08:56;;;;;;;30.80;18.55;;;;;;;;;;5050773;28;20040;-77
2023/03/12 04:11:23;;;;;;;32.60;19.13;;;;;;;;;;5033464;28;20087;-76
2023/03/12 04:13:49;;;;;;;35.92;21.42;;;;;;;;;;5033236;28;20040;-79
2023/03/12 04:16:17;;;;;;;39.03;21.65;;;;;;;;;;5033591;28;20090;-79
2023/03/12 04:18:43;;;;;;;39.67;21.83;;;;;;;;;;5033105;28;20483;-78
2023/03/12 04:21:10;;;;;;;31.88;18.92;;;;;;;;;;5032973;28;20029;-77
2023/03/12 04:23:36;;;;;;;38.22;21.27;;;;;;;;;;5016453;28;20048;-78
2023/03/12 04:26:01;;;;;;;37.83;21.38;;;;;;;;;;5016503;28;20028;-78
2023/03/12 04:28:28;;;;;;;40.75;21.33;;;;;;;;;;5032334;28;20116;-78
2023/03/12 04:30:58;;;;;;;38.90;21.33;;;;;;;;;;5032976;28;20586;-77
2023/03/12 04:33:28;;;;;;;39.05;20.50;;;;;;;;;;5016632;28;20419;-78
2023/03/12 04:35:54;;;;;;;31.88;19.20;;;;;;;;;;5013502;28;20067;-78
2023/03/12 04:38:21;;;;;;;33.35;19.48;;;;;;;;;;5014088;28;20440;-78
2023/03/12 04:40:46;;;;;;;33.83;18.95;;;;;;;;;;5033044;28;20031;-78
2023/03/12 04:43:12;;;;;;;31.50;17.90;;;;;;;;;;5032554;28;20033;-78
2023/03/12 04:45:38;;;;;;;31.65;18.92;;;;;;;;;;5032954;28;20036;-79
2023/03/12 04:48:04;;;;;;;34.40;18.60;;;;;;;;;;5013453;28;20446;-78
2023/03/12 04:50:30;;;;;;;33.15;19.30;;;;;;;;;;5007964;28;20025;-78
2023/03/12 04:52:56;;;;;;;31.27;19.23;;;;;;;;;;5033023;28;20036;-78
2023/03/12 04:55:22;;;;;;;31.13;18.10;;;;;;;;;;5043313;28;20060;-77
2023/03/12 04:57:47;;;;;;;30.17;17.60;;;;;;;;;;5034250;28;20036;-77
2023/03/12 05:00:13;;;;;;;;;;;;;;;;;;5053886;28;20462;-77
2023/03/12 05:02:40;;;;;;;39.00;19.57;;;;;;;;;;5036515;28;20272;-77
2023/03/12 05:05:06;;;;;;;36.33;19.95;;;;;;;;;;5033253;28;20264;-77
2023/03/12 05:07:32;;;;;;;40.88;20.08;;;;;;;;;;5035163;28;20048;-77
2023/03/12 05:09:58;;;;;;;33.88;18.38;;;;;;;;;;5033619;28;20120;-76
2023/03/12 05:12:23;;;;;;;33.03;18.52;;;;;;;;;;5034978;28;20056;-77
2023/03/12 05:14:49;;;;;;;29.90;17.60;;;;;;;;;;5052978;28;20075;-77
2023/03/12 05:17:14;;;;;;;33.25;18.60;;;;;;;;;;5052720;28;20079;-78
2023/03/12 05:19:40;;;;;;;34.03;18.35;;;;;;;;;;5053947;28;20037;-78
2023/03/12 05:22:06;;;;;;;32.78;18.20;;;;;;;;;;5054037;28;20443;-75
2023/03/12 05:24:32;;;;;;;40.15;19.52;;;;;;;;;;5052947;28;20032;-78
2023/03/12 05:26:59;;;;;;;35.33;18.70;;;;;;;;;;5035980;28;20483;-77
2023/03/12 05:29:26;;;;;;;38.97;20.45;;;;;;;;;;5052648;28;20067;-77
2023/03/12 05:31:52;;;;;;;34.22;19.00;;;;;;;;;;5052821;28;20029;-77
2023/03/12 05:34:18;;;;;;;29.55;17.42;;;;;;;;;;5052325;28;20034;-77
2023/03/12 05:36:44;;;;;;;31.52;16.45;;;;;;;;;;5052372;28;20086;-77
2023/03/12 05:39:11;;;;;;;28.83;16.90;;;;;;;;;;5036338;28;20029;-77
2023/03/12 05:41:37;;;;;;;30.58;17.65;;;;;;;;;;5052348;28;20029;-77
2023/03/12 05:44:12;;;;;;;32.65;17.70;;;;;;;;;;5052528;28;20029;-77
2023/03/12 05:46:38;;;;;;;30.98;16.92;;;;;;;;;;5035952;28;20074;-77
2023/03/12 05:49:04;;;;;;;35.03;18.00;;;;;;;;;;5035939;28;20056;-76
2023/03/12 05:51:31;;;;;;;34.28;18.50;;;;;;;;;;5052206;28;20480;-77
2023/03/12 05:53:58;;;;;;;37.28;18.92;;;;;;;;;;5037963;28;20037;-78
2023/03/12 05:56:24;;;;;;;29.52;17.58;;;;;;;;;;5073427;28;20557;-78
2023/03/12 05:58:49;;;;;;;29.88;16.65;;;;;;;;;;5072682;28;20123;-78
2023/03/12 06:01:26;;;;;;;30.98;18.15;;;;;;;;;;5038504;28;20039;-78
2023/03/12 06:03:53;;;;;;;32.28;18.20;;;;;;;;;;5039091;28;20064;-76
2023/03/12 06:06:19;;;;;;;34.92;18.75;;;;;;;;;;5038451;28;20050;-77
2023/03/12 06:08:45;;;;;;;33.97;18.40;;;;;;;;;;5037835;28;20044;-76
2023/03/12 06:11:11;;;;;;;33.72;18.45;;;;;;;;;;5047040;28;20036;-78
2023/03/12 06:13:37;;;;;;;32.15;17.58;;;;;;;;;;5019602;28;20095;-78
2023/03/12 06:16:06;;;;;;;27.77;17.23;;;;;;;;;;5054605;28;20048;-77
2023/03/12 06:18:32;;;;;;;28.63;16.42;;;;;;;;;;5054381;28;20032;-78
2023/03/12 06:21:10;;;;;;;26.02;15.73;;;;;;;;;;5054979;28;20024;-78
2023/03/12 06:23:37;;;;;;;28.88;17.60;;;;;;;;;;5054228;28;20043;-78
2023/03/12 06:26:02;;;;;;;29.55;16.63;;;;;;;;;;5031693;28;20025;-77
2023/03/12 06:28:28;;;;;;;25.55;15.30;;;;;;;;;;5017713;28;20384;-80
2023/03/12 06:30:54;;;;;;;26.20;16.45;;;;;;;;;;5043607;28;20081;-79
2023/03/12 06:33:19;;;;;;;23.98;14.82;;;;;;;;;;5039567;28;20032;-79
2023/03/12 06:35:45;;;;;;;22.63;14.57;;;;;;;;;;5062366;28;20032;-81
2023/03/12 06:38:10;;;;;;;21.35;14.13;;;;;;;;;;5057164;28;20082;-78
2023/03/12 06:40:36;;;;;;;22.13;14.27;;;;;;;;;;5048220;28;20551;-78
2023/03/12 06:43:02;;;;;;;24.77;16.27;;;;;;;;;;5056532;28;20028;-78
2023/03/12 06:45:27;;;;;;;24.85;15.75;;;;;;;;;;5064816;28;20026;-78
2023/03/12 06:47:53;;;;;;;25.75;15.32;;;;;;;;;;5008277;28;20082;-78
2023/03/12 06:50:18;;;;;;;20.55;14.02;;;;;;;;;;5064663;28;20032;-77
2023/03/12 06:52:44;;;;;;;19.55;12.88;;;;;;;;;;5057757;28;20030;-78
2023/03/12 06:55:09;;;;;;;21.85;13.32;;;;;;;;;;5054929;28;20446;-79
2023/03/12 06:57:35;;;;;;;18.90;13.23;;;;;;;;;;5030949;28;20041;-80
2023/03/12 07:00:00;;;;;;;18.83;13.48;;;;;;;;;;5053201;28;20036;-81
2023/03/12 07:02:25;;;;;;;18.95;12.93;;;;;;;;;;5050272;28;20036;-78
2023/03/12 07:04:51;;;;;;;18.02;11.80;;;;;;;;;;5050626;28;20778;-78
2023/03/12 07:07:17;;;;;;;16.42;12.15;;;;;;;;;;5050228;28;20037;-78
2023/03/12 07:09:42;;;;;;;20.55;13.02;;;;;;;;;;5048118;28;20120;-78
2023/03/12 07:12:08;;;;;;;;;;;;;;;;;;5032052;28;20059;-79
2023/03/12 07:14:33;;;;;;;19.00;12.25;;;;;;;;;;5023234;28;19924;-79
2023/03/12 07:17:00;;;;;;;17.23;11.07;;;;;;;;;;5031041;28;20037;-79
2023/03/12 07:19:26;;;;;;;14.43;10.23;;;;;;;;;;5033446;28;20052;-80
2023/03/12 07:21:51;;;;;;;15.07;10.98;;;;;;;;;;5029545;28;20591;-79
2023/03/12 07:24:17;;;;;;;20.05;12.93;;;;;;;;;;5050172;28;20025;-79
2023/03/12 07:26:42;;;;;;;15.63;11.60;;;;;;;;;;5028654;28;20033;-79
2023/03/12 07:29:08;;;;;;;17.40;12.35;;;;;;;;;;5044841;28;20095;-79
2023/03/12 07:31:33;;;;;;;12.57;9.98;;;;;;;;;;5023366;28;20084;-78
2023/03/12 07:34:01;;;;;;;12.75;10.20;;;;;;;;;;5023947;28;20135;-79
2023/03/12 07:36:28;;;;;;;15.00;8.82;;;;;;;;;;5027497;28;20044;-81
2023/03/12 07:38:54;;;;;;;12.32;8.80;;;;;;;;;;5043553;28;20026;-81
2023/03/12 07:41:19;;;;;;;11.38;8.70;;;;;;;;;;5047840;28;20036;-79
2023/03/12 07:43:45;;;;;;;10.25;8.00;;;;;;;;;;5048517;28;20440;-79
2023/03/12 07:46:10;;;;;;;9.88;7.60;;;;;;;;;;5020803;28;20069;-79
2023/03/12 07:48:36;;;;;;;9.90;7.38;;;;;;;;;;5015296;28;20928;-78
2023/03/12 07:51:02;;;;;;;9.77;7.32;;;;;;;;;;5000288;28;20037;-80
2023/03/12 07:53:27;;;;;;;9.90;6.97;;;;;;;;;;5034590;28;20038;-80
2023/03/12 07:55:53;;;;;;;10.57;6.88;;;;;;;;;;5036491;28;20064;-79
2023/03/12 07:58:18;;;;;;;10.15;6.70;;;;;;;;;;5017068;28;20507;-79
2023/03/12 08:00:44;;;;;;;;;;;;;;;;;;5045579;28;20117;-79
2023/03/12 08:03:09;;;;;;;8.77;6.75;;;;;;;;;;5027496;28;19991;-79
2023/03/12 08:05:35;;;;;;;8.95;6.35;;;;;;;;;;5030802;28;20030;-77
2023/03/12 08:08:00;;;;;;;9.30;5.70;;;;;;;;;;5045978;28;20104;-80
2023/03/12 08:10:26;;;;;;;7.60;5.13;;;;;;;;;;5032948;28;20037;-78
2023/03/12 08:12:51;;;;;;;7.55;5.65;;;;;;;;;;5038806;28;20048;-79
2023/03/12 08:15:17;;;;;;;7.43;5.68;;;;;;;;;;5016425;28;20544;-78
2023/03/12 08:17:42;;;;;;;6.93;5.85;;;;;;;;;;5047025;28;20511;-81
2023/03/12 08:20:09;;;;;;;8.80;6.13;;;;;;;;;;5052182;28;20036;-82
2023/03/12 08:22:34;;;;;;;;;;;;;;;;;;5034399;28;20029;-80
2023/03/12 08:24:59;;;;;;;9.23;5.65;;;;;;;;;;5048819;28;19920;-79
2023/03/12 08:27:25;;;;;;;8.35;6.00;;;;;;;;;;5050039;28;20066;-78
2023/03/12 08:29:50;;;;;;;8.98;6.38;;;;;;;;;;5052072;28;20514;-78
2023/03/12 08:32:15;;;;;;;7.60;5.90;;;;;;;;;;5052362;28;20040;-80
2023/03/12 08:34:41;;;;;;;7.00;5.13;;;;;;;;;;5055997;28;20048;-80
2023/03/12 08:37:07;;;;;;;7.60;5.82;;;;;;;;;;5038562;28;20094;-81
2023/03/12 08:39:32;;;;;;;;;;;;;;;;;;5038439;28;20041;-78
2023/03/12 08:41:58;;;;;;;7.45;5.63;;;;;;;;;;5056391;28;20236;-80
2023/03/12 08:44:23;;;;;;;8.00;5.32;;;;;;;;;;5037721;28;20116;-80
2023/03/12 08:46:49;;;;;;;5.97;4.60;;;;;;;;;;5036688;28;20087;-80
2023/03/12 08:49:15;;;;;;;;;;;;;;;;;;5036113;28;20094;-80
2023/03/12 08:51:40;;;;;;;7.60;3.95;;;;;;;;;;5055618;28;19912;-79
2023/03/12 08:54:06;;;;;;;5.78;4.30;;;;;;;;;;5049164;28;20069;-79
2023/03/12 08:56:31;;;;;;;5.30;3.78;;;;;;;;;;5047623;28;20045;-79
2023/03/12 08:58:57;;;;;;;4.80;3.22;;;;;;;;;;5041906;28;20786;-78
2023/03/12 09:01:22;;;;;;;5.07;3.08;;;;;;;;;;5028658;28;20037;-78
2023/03/12 09:03:49;;;;;;;5.20;2.92;;;;;;;;;;5030719;28;20060;-78
2023/03/12 09:06:15;;;;;;;3.83;2.67;;;;;;;;;;5046500;28;20020;-78
2023/03/12 09:08:44;;;;;;;3.50;1.85;;;;;;;;;;5020795;28;20048;-79
2023/03/12 09:11:09;;;;;;;3.17;2.10;;;;;;;;;;5049232;28;20403;-80
2023/03/12 09:13:35;;;;;;;3.03;1.70;;;;;;;;;;5055300;28;20044;-79
2023/03/12 09:16:01;;;;;;;2.88;1.70;;;;;;;;;;5056034;28;20025;-78
2023/03/12 09:18:27;;;;;;;2.40;1.40;;;;;;;;;;5055015;28;20492;-78
2023/03/12 09:20:52;;;;;;;3.90;1.58;;;;;;;;;;5054909;28;20480;-78
2023/03/12 09:23:18;;;;;;;2.22;1.30;;;;;;;;;;5049827;28;20033;-78
2023/03/12 09:25:46;;;;;;;1.98;1.30;;;;;;;;;;5034983;28;20025;-79
2023/03/12 09:28:12;;;;;;;1.60;1.15;;;;;;;;;;5018134;28;20029;-78
2023/03/12 09:30:37;;;;;;;1.73;1.13;;;;;;;;;;5019634;28;20443;-78
2023/03/12 09:33:03;;;;;;;1.48;1.00;;;;;;;;;;5040096;28;20033;-78
2023/03/12 09:35:30;;;;;;;1.98;0.88;;;;;;;;;;5034971;28;20087;-78
2023/03/12 09:37:56;;;;;;;2.05;1.30;;;;;;;;;;4989289;28;20036;-78
2023/03/12 09:40:22;;;;;;;1.58;0.90;;;;;;;;;;5035898;28;20033;-77
2023/03/12 09:42:47;;;;;;;;;;;;;;;;;;5046954;28;20105;-78
2023/03/12 09:45:18;;;;;;;1.85;0.88;;;;;;;;;;5030856;28;20031;-79
2023/03/12 09:47:48;;;;;;;1.02;0.65;;;;;;;;;;5030660;28;20037;-78
2023/03/12 09:50:27;;;;;;;1.27;0.60;;;;;;;;;;5051131;28;20025;-78
2023/03/12 09:52:55;;;;;;;0.77;0.50;;;;;;;;;;5016070;28;20512;-77
2023/03/12 09:55:21;;;;;;;0.88;0.55;;;;;;;;;;5029878;28;20057;-78
2023/03/12 09:57:47;;;;;;;1.38;0.60;;;;;;;;;;5051841;28;20132;-79
2023/03/12 10:00:22;;;;;;;1.30;0.90;;;;;;;;;;5035979;28;20036;-79
2023/03/12 10:02:57;;;;;;;1.08;0.80;;;;;;;;;;5049544;28;20032;-79
2023/03/12 10:05:44;;;;;;;1.40;0.90;;;;;;;;;;5033923;28;20076;-78
2023/03/12 10:08:32;;;;;;;1.17;0.60;;;;;;;;;;5042122;28;20036;-78
2023/03/12 10:11:01;;;;;;;1.52;0.70;;;;;;;;;;5049158;28;20542;-77
2023/03/12 10:13:29;;;;;;;1.20;0.82;;;;;;;;;;5033671;28;20459;-78
2023/03/12 10:16:07;;;;;;;1.08;0.70;;;;;;;;;;5050830;28;20541;-78
2023/03/12 10:18:39;;;;;;;1.15;0.80;;;;;;;;;;5053167;28;20037;-79
2023/03/12 10:21:04;;;;;;;1.10;0.85;;;;;;;;;;5048845;28;20037;-80
2023/03/12 10:23:33;;;;;;;1.33;0.60;;;;;;;;;;5025010;28;20032;-79
2023/03/12 10:26:01;;;;;;;0.93;0.68;;;;;;;;;;5052947;28;20048;-78
2023/03/12 10:28:30;;;;;;;0.95;0.70;;;;;;;;;;5051450;28;20076;-78
2023/03/12 10:30:57;;;;;;;0.93;0.60;;;;;;;;;;5051187;28;20505;-78
2023/03/12 10:33:22;;;;;;;0.85;0.60;;;;;;;;;;5045387;28;20032;-78
2023/03/12 10:35:48;;;;;;;1.25;0.60;;;;;;;;;;5035410;28;20036;-78
2023/03/12 10:38:25;;;;;;;1.92;0.85;;;;;;;;;;5043734;28;20021;-78
2023/03/12 10:40:50;;;;;;;1.40;0.90;;;;;;;;;;5040325;28;20030;-79
2023/03/12 10:43:16;;;;;;;2.85;0.98;;;;;;;;;;5034596;28;20084;-79
2023/03/12 10:45:46;;;;;;;1.63;0.77;;;;;;;;;;5050076;28;20044;-78
2023/03/12 10:48:22;;;;;;;1.33;0.80;;;;;;;;;;5042104;28;20492;-78
2023/03/12 10:50:59;;;;;;;1.40;0.90;;;;;;;;;;5035780;28;20037;-78
2023/03/12 10:53:29;;;;;;;1.25;0.88;;;;;;;;;;5034210;28;21078;-78
2023/03/12 10:55:58;;;;;;;1.58;0.80;;;;;;;;;;5044598;28;20051;-77
2023/03/12 10:58:24;;;;;;;0.93;0.60;;;;;;;;;;5036942;28;20530;-78
2023/03/12 11:00:56;;;;;;;0.70;0.60;;;;;;;;;;5042134;28;20029;-77
2023/03/12 11:03:21;;;;;;;1.42;0.60;;;;;;;;;;5030550;28;20085;-79
2023/03/12 11:05:48;;;;;;;2.35;0.90;;;;;;;;;;5049313;28;20507;-78
2023/03/12 11:08:20;;;;;;;0.88;0.60;;;;;;;;;;5051048;28;20033;-78
2023/03/12 11:10:46;;;;;;;1.02;0.57;;;;;;;;;;5050181;28;20034;-79
2023/03/12 11:13:25;;;;;;;0.52;0.52;;;;;;;;;;5014122;28;20028;-79
2023/03/12 11:15:51;;;;;;;0.40;0.40;;;;;;;;;;5045221;28;20072;-79
2023/03/12 11:18:18;;;;;;;0.55;0.50;;;;;;;;;;5042517;28;20055;-78
2023/03/12 11:20:44;;;;;;;1.33;0.75;;;;;;;;;;5027128;28;20068;-79
2023/03/12 11:23:13;;;;;;;1.25;0.77;;;;;;;;;;5036934;28;20021;-78
2023/03/12 11:25:39;;;;;;;2.15;0.90;;;;;;;;;;5033721;28;20089;-78
2023/03/12 11:28:04;;;;;;;0.82;0.63;;;;;;;;;;5033639;28;20064;-79
2023/03/12 11:30:36;;;;;;;1.63;0.70;;;;;;;;;;5043837;28;20037;-79
2023/03/12 11:33:02;;;;;;;1.73;0.85;;;;;;;;;;5036388;28;20108;-77
2023/03/12 11:35:33;;;;;;;0.60;0.50;;;;;;;;;;5038535;28;20123;-78
2023/03/12 11:38:17;;;;;;;1.15;0.77;;;;;;;;;;5032760;28;20029;-78
2023/03/12 11:40:48;;;;;;;1.75;0.90;;;;;;;;;;5042066;28;20037;-79
2023/03/12 11:43:30;;;;;;;3.15;1.00;;;;;;;;;;5038353;28;20111;-78
2023/03/12 11:45:59;;;;;;;0.80;0.60;;;;;;;;;;5035856;28;20499;-79
2023/03/12 11:48:27;;;;;;;1.23;0.70;;;;;;;;;;5032406;28;20060;-80
2023/03/12 11:50:58;;;;;;;1.02;0.70;;;;;;;;;;5035669;28;20033;-79
2023/03/12 11:53:45;;;;;;;1.13;0.90;;;;;;;;;;5044520;28;20059;-78
2023/03/12 11:56:11;;;;;;;;;;;;;;;;;;5038236;28;20044;-79
2023/03/12 11:58:48;;;;;;;2.85;0.82;;;;;;;;;;5051407;28;19912;-80
2023/03/12 12:01:17;;;;;;;1.00;0.77;;;;;;;;;;5050854;28;20056;-78
2023/03/12 12:03:49;;;;;;;1.02;0.77;;;;;;;;;;5022175;28;20029;-80
2023/03/12 12:06:17;;;;;;;3.20;1.20;;;;;;;;;;5032529;28;20033;-79
2023/03/12 12:08:45;;;;;;;1.58;0.90;;;;;;;;;;5045308;28;20032;-78
2023/03/12 12:11:11;;;;;;;2.30;1.38;;;;;;;;;;5044416;28;20025;-79
2023/03/12 12:13:43;;;;;;;2.20;0.95;;;;;;;;;;5033529;28;20021;-80
2023/03/12 12:16:08;;;;;;;1.48;1.08;;;;;;;;;;5032067;28;20037;-80
2023/03/12 12:18:41;;;;;;;1.70;0.90;;;;;;;;;;5044203;28;20386;-79
2023/03/12 12:21:25;;;;;;;1.00;0.80;;;;;;;;;;5032762;28;20029;-80
2023/03/12 12:23:54;;;;;;;1.73;0.77;;;;;;;;;;5049198;28;20033;-80
2023/03/12 12:26:22;;;;;;;1.60;1.10;;;;;;;;;;5037703;28;20392;-80
2023/03/12 12:28:57;;;;;;;1.50;0.82;;;;;;;;;;5045016;28;20037;-79
2023/03/12 12:31:26;;;;;;;1.13;0.80;;;;;;;;;;5031594;28;20530;-79
2023/03/12 12:34:01;;;;;;;1.13;0.68;;;;;;;;;;5030567;28;20856;-79
2023/03/12 12:36:27;;;;;;;1.13;0.82;;;;;;;;;;5041672;28;20041;-80
2023/03/12 12:38:54;;;;;;;1.17;0.73;;;;;;;;;;5037438;28;20040;-80
2023/03/12 12:41:20;;;;;;;1.23;0.70;;;;;;;;;;5036429;28;20029;-81
2023/03/12 12:43:46;;;;;;;;;;;;;;;;;;5033702;28;20027;-79
2023/03/12 12:46:16;;;;;;;1.60;1.02;;;;;;;;;;5032801;28;20295;-81
2023/03/12 12:48:54;;;;;;;1.90;0.90;;;;;;;;;;5047410;28;20112;-79
2023/03/12 12:51:22;;;;;;;1.00;0.75;;;;;;;;;;5032168;28;20029;-81
2023/03/12 12:53:50;;;;;;;2.95;1.08;;;;;;;;;;5030919;28;20112;-80
2023/03/12 12:56:31;;;;;;;2.03;1.10;;;;;;;;;;5040986;28;20918;-81
2023/03/12 12:59:02;;;;;;;2.08;1.10;;;;;;;;;;5047750;28;20493;-79
2023/03/12 13:01:28;;;;;;;1.42;0.90;;;;;;;;;;5031864;28;20044;-80
2023/03/12 13:03:55;;;;;;;1.73;0.90;;;;;;;;;;5037740;28;20512;-80
2023/03/12 13:06:21;;;;;;;1.23;0.90;;;;;;;;;;5016115;28;20027;-81
2023/03/12 13:08:47;;;;;;;2.25;0.90;;;;;;;;;;5031267;28;20033;-79
2023/03/12 13:11:13;;;;;;;1.38;0.90;;;;;;;;;;5004056;28;20033;-81
2023/03/12 13:13:38;;;;;;;2.45;1.45;;;;;;;;;;5019324;28;20052;-82
2023/03/12 13:16:23;;;;;;;1.30;0.98;;;;;;;;;;5023735;28;20037;-78
2023/03/12 13:18:58;;;;;;;1.35;0.95;;;;;;;;;;5038272;28;20061;-79
2023/03/12 13:21:25;;;;;;;1.60;1.10;;;;;;;;;;5019416;28;20047;-79
2023/03/12 13:23:57;;;;;;;1.30;0.90;;;;;;;;;;5047749;28;20030;-79
2023/03/12 13:26:28;;;;;;;1.90;1.00;;;;;;;;;;5019055;28;20024;-80
2023/03/12 13:28:54;;;;;;;1.67;1.08;;;;;;;;;;5020432;28;20087;-80
2023/03/12 13:31:22;;;;;;;2.08;1.38;;;;;;;;;;5047506;28;20060;-80
2023/03/12 13:33:49;;;;;;;1.98;1.10;;;;;;;;;;5027519;28;20041;-79
2023/03/12 13:36:14;;;;;;;1.80;1.27;;;;;;;;;;5021826;28;20029;-83
2023/03/12 13:38:57;;;;;;;1.88;1.10;;;;;;;;;;5054001;28;20488;-81
2023/03/12 13:41:29;;;;;;;1.70;1.20;;;;;;;;;;5036281;28;20110;-80
2023/03/12 13:43:55;;;;;;;1.55;1.10;;;;;;;;;;5035937;28;20033;-80
2023/03/12 13:46:26;;;;;;;2.22;1.45;;;;;;;;;;5019946;28;20472;-82
2023/03/12 13:48:51;;;;;;;3.45;1.40;;;;;;;;;;5054067;28;20041;-80
2023/03/12 13:51:18;;;;;;;2.47;1.50;;;;;;;;;;5036338;28;20373;-80
2023/03/12 13:53:48;;;;;;;3.10;1.33;;;;;;;;;;5054181;28;20475;-81
2023/03/12 13:56:14;;;;;;;2.15;1.48;;;;;;;;;;5035917;28;20170;-80
2023/03/12 13:58:39;;;;;;;;;;;;;;;;;;5036481;28;20131;-81
2023/03/12 14:01:05;;;;;;;2.30;1.50;;;;;;;;;;5053808;28;19995;-81
2023/03/12 14:03:31;;;;;;;;;;;;;;;;;;5036461;28;20554;-80
2023/03/12 14:05:57;;;;;;;10.65;2.03;;;;;;;;;;5054236;28;19968;-82
2023/03/12 14:08:26;;;;;;;2.70;1.50;;;;;;;;;;5018180;28;20443;-80
2023/03/12 14:11:01;;;;;;;3.28;1.77;;;;;;;;;;5053686;28;20421;-80
2023/03/12 14:13:39;;;;;;;2.35;1.40;;;;;;;;;;5036053;28;20546;-80
2023/03/12 14:16:06;;;;;;;3.42;1.70;;;;;;;;;;5045863;28;20094;-81
2023/03/12 14:18:32;;;;;;;2.03;1.25;;;;;;;;;;5018313;28;20025;-81
2023/03/12 14:20:58;;;;;;;2.05;1.70;;;;;;;;;;5023860;28;20079;-81
2023/03/12 14:23:26;;;;;;;2.45;1.35;;;;;;;;;;5023194;28;20013;-80
2023/03/12 14:25:52;;;;;;;2.72;1.55;;;;;;;;;;5019593;28;20102;-81
2023/03/12 14:28:17;;;;;;;;;;;;;;;;;;5035250;28;20397;-80
2023/03/12 14:30:46;;;;;;;2.30;1.50;;;;;;;;;;5052306;28;19913;-81
2023/03/12 14:33:12;;;;;;;2.28;1.58;;;;;;;;;;5053262;28;20361;-80
2023/03/12 14:35:37;;;;;;;;;;;;;;;;;;5053449;28;20037;-80